Hawkins, Wisconsin
Current Conditions -  °F | °C
As of 11:15 AM on Friday 24 Oct 2014 (Local Time) from KRCX Reporting Station
Haze Haze  
Wind Chill: 46°   Ceiling: 300
Heat Index: 49°   Visibility: 5mi
Dew Point: 48°   Wind: 8mph
Humidity: 97%   Direction: 160°SSE
Pressure: 29.95"   Gusts: NA
Location:  45.51°N, 90.72°W
Report Text: KRCX 241615Z AUTO 16007KT 5SM BR OVC003 10/09 A2995 RMK AO2 T00950090
Loading
Personal Weather Stations






























Interactive Weather Map
Tropical Storm Tracking
New forecast layout! Learn more

10-Day Weather Forecast

Advertisements
Track Severe Weather on mobile